Time;durP1;ratioP1;P1;durP2;ratioP2;P2;SDS_P1;SDS_P2;PMS_P1;PMS_P2;Temp;Humidity;BMP_temperature;BMP_pressure;BME280_temperature;BME280_humidity;BME280_pressure;Samples;Min_cycle;Max_cycle;Signal;HPM_P1;HPM_P2
2020/12/02 00:01:25;;;;;;;38.50;22.95;;;6.10;99.90;;;;;;4213346;28;20042;-74
2020/12/02 00:03:36;;;;;;;38.25;23.35;;;6.10;99.90;;;;;;4207352;28;20031;-74
2020/12/02 00:05:42;;;;;;;39.67;24.15;;;6.10;99.90;;;;;;4207978;28;20110;-74
2020/12/02 00:07:46;;;;;;;36.17;23.27;;;6.10;99.90;;;;;;4200678;28;20158;-74
2020/12/02 00:09:47;;;;;;;40.75;24.40;;;6.10;99.90;;;;;;4194893;28;20415;-75
2020/12/02 00:11:50;;;;;;;41.88;24.25;;;6.10;99.90;;;;;;4208139;28;20475;-75
2020/12/02 00:13:51;;;;;;;38.75;24.00;;;6.10;99.90;;;;;;4198293;28;20464;-74
2020/12/02 00:15:52;;;;;;;37.38;22.92;;;6.10;99.90;;;;;;4192919;28;20472;-74
2020/12/02 00:20:49;;;;;;;34.88;22.60;;;6.10;99.90;;;;;;4197652;28;20043;-74
2020/12/02 00:22:50;;;;;;;42.25;23.58;;;6.10;99.90;;;;;;4212148;28;20028;-74
2020/12/02 00:24:52;;;;;;;41.78;23.17;;;6.10;99.90;;;;;;4197940;28;20111;-75
2020/12/02 00:26:52;;;;;;;44.35;24.58;;;6.10;99.90;;;;;;4188775;28;20032;-75
2020/12/02 00:28:54;;;;;;;40.97;24.73;;;6.00;99.90;;;;;;4196690;28;20036;-74
2020/12/02 00:30:54;;;;;;;38.90;23.58;;;6.10;99.90;;;;;;4200312;28;20090;-75
2020/12/02 00:33:10;;;;;;;35.60;23.42;;;6.00;99.90;;;;;;4208821;28;20036;-74
2020/12/02 00:35:16;;;;;;;39.75;23.13;;;6.00;99.90;;;;;;4196439;28;20028;-75
2020/12/02 00:37:17;;;;;;;38.15;23.70;;;6.00;99.90;;;;;;4212111;28;20028;-74
2020/12/02 00:39:18;;;;;;;39.97;25.15;;;6.00;99.90;;;;;;4194357;28;20035;-75
2020/12/02 00:41:18;;;;;;;38.78;23.25;;;6.00;99.90;;;;;;4209656;28;20511;-75
2020/12/02 00:43:24;;;;;;;39.47;25.00;;;6.10;99.90;;;;;;4190424;28;20055;-74
2020/12/02 00:45:24;;;;;;;37.63;24.13;;;6.00;99.90;;;;;;4207507;28;20494;-75
2020/12/02 00:47:25;;;;;;;38.95;23.60;;;6.10;99.90;;;;;;4184289;28;20033;-75
2020/12/02 00:49:26;;;;;;;41.90;25.08;;;6.10;99.90;;;;;;4198849;28;20029;-74
2020/12/02 00:51:27;;;;;;;36.10;22.98;;;6.10;99.90;;;;;;4195091;28;20037;-75
2020/12/02 00:53:31;;;;;;;45.50;25.42;;;6.10;99.90;;;;;;4211766;28;20048;-74
2020/12/02 00:55:32;;;;;;;45.30;26.98;;;6.10;99.90;;;;;;4203483;28;20033;-74
2020/12/02 00:57:35;;;;;;;41.45;25.02;;;6.10;99.90;;;;;;4195227;28;20079;-74
2020/12/02 00:59:38;;;;;;;38.30;25.63;;;6.10;99.90;;;;;;4213353;28;20515;-75
2020/12/02 01:01:56;;;;;;;40.40;25.17;;;6.10;99.90;;;;;;4184313;28;20024;-75
2020/12/02 01:03:58;;;;;;;44.67;24.90;;;6.10;99.90;;;;;;4187842;28;20143;-75
2020/12/02 01:06:00;;;;;;;43.22;26.30;;;6.10;99.90;;;;;;4190445;28;20073;-75
2020/12/02 01:08:32;;;;;;;38.10;24.33;;;6.10;99.90;;;;;;4197216;28;20020;-76
2020/12/02 01:10:33;;;;;;;41.00;25.95;;;6.10;99.90;;;;;;4177318;28;20427;-74
2020/12/02 01:12:33;;;;;;;38.05;24.05;;;6.00;99.90;;;;;;4210194;28;20020;-74
2020/12/02 01:14:34;;;;;;;36.72;25.17;;;6.00;99.90;;;;;;4213931;28;20028;-75
2020/12/02 01:16:39;;;;;;;39.13;23.95;;;6.00;99.90;;;;;;4214081;28;20390;-74
2020/12/02 01:18:39;;;;;;;35.13;23.13;;;6.00;99.90;;;;;;4214117;28;20020;-74
2020/12/02 01:20:41;;;;;;;41.25;25.63;;;6.00;99.90;;;;;;4213921;28;20035;-74
2020/12/02 01:22:44;;;;;;;38.70;24.00;;;6.00;99.90;;;;;;4213790;28;20028;-75
2020/12/02 01:25:08;;;;;;;40.23;26.03;;;6.00;99.90;;;;;;4192454;28;20029;-74
2020/12/02 01:27:23;;;;;;;40.30;24.98;;;6.00;99.90;;;;;;4188817;28;20622;-74
2020/12/02 01:29:24;;;;;;;39.45;23.65;;;6.00;99.90;;;;;;4193779;28;20494;-75
2020/12/02 01:31:25;;;;;;;39.17;24.02;;;6.00;99.90;;;;;;4185887;28;20118;-74
2020/12/02 01:33:26;;;;;;;44.47;24.27;;;6.00;99.90;;;;;;4196318;28;20171;-75
2020/12/02 01:35:29;;;;;;;42.22;24.85;;;6.00;99.90;;;;;;4195343;28;20434;-74
2020/12/02 01:37:34;;;;;;;39.38;23.30;;;6.00;99.90;;;;;;4190259;28;20483;-75
2020/12/02 01:39:42;;;;;;;38.17;22.98;;;6.00;99.90;;;;;;4207919;28;20458;-74
2020/12/02 01:41:43;;;;;;;44.30;24.83;;;6.00;99.90;;;;;;4210812;28;20064;-75
2020/12/02 01:43:44;;;;;;;37.47;22.85;;;6.00;99.90;;;;;;4193824;28;20396;-75
2020/12/02 01:45:51;;;;;;;42.70;23.20;;;6.00;99.90;;;;;;4207662;28;20035;-75
2020/12/02 01:47:58;;;;;;;37.85;22.65;;;6.00;99.90;;;;;;4205924;28;20031;-75
2020/12/02 01:50:15;;;;;;;35.20;22.02;;;6.00;99.90;;;;;;4186838;28;20119;-75
2020/12/02 01:52:25;;;;;;;38.55;23.35;;;6.00;99.90;;;;;;4194074;28;20036;-75
2020/12/02 01:54:32;;;;;;;39.17;23.83;;;6.00;99.90;;;;;;4212104;28;20126;-74
2020/12/02 01:56:48;;;;;;;36.63;22.85;;;6.00;99.90;;;;;;4202089;28;20149;-75
2020/12/02 01:59:12;;;;;;;36.80;22.63;;;6.00;99.90;;;;;;4209631;28;20028;-74
2020/12/02 02:01:20;;;;;;;36.78;20.98;;;6.00;99.90;;;;;;4189634;28;20037;-75
2020/12/02 02:03:23;;;;;;;32.92;20.77;;;6.00;99.90;;;;;;4198738;28;20039;-75
2020/12/02 02:05:27;;;;;;;34.70;20.55;;;6.00;99.90;;;;;;4204197;28;20539;-74
2020/12/02 02:07:29;;;;;;;35.70;21.42;;;6.00;99.90;;;;;;4191152;28;20047;-75
2020/12/02 02:09:30;;;;;;;33.63;20.67;;;6.00;99.90;;;;;;4195198;28;20050;-74
2020/12/02 02:11:31;;;;;;;35.45;22.13;;;6.00;99.90;;;;;;4210590;28;20034;-74
2020/12/02 02:13:56;;;;;;;31.38;21.17;;;6.00;99.90;;;;;;4213175;28;20023;-75
2020/12/02 02:16:11;;;;;;;27.70;18.83;;;6.00;99.90;;;;;;4212284;28;20028;-75
2020/12/02 02:18:24;;;;;;;35.67;21.40;;;5.90;99.90;;;;;;4192884;28;20399;-74
2020/12/02 02:20:31;;;;;;;37.53;21.48;;;5.90;99.90;;;;;;4171457;28;20068;-75
2020/12/02 02:22:31;;;;;;;31.67;20.02;;;5.90;99.90;;;;;;4196023;28;20036;-74
2020/12/02 02:24:32;;;;;;;38.65;21.65;;;5.90;99.90;;;;;;4192594;28;20047;-74
2020/12/02 02:26:40;;;;;;;33.95;21.65;;;5.90;99.90;;;;;;4174618;28;20033;-74
2020/12/02 02:29:00;;;;;;;30.42;20.52;;;5.90;99.90;;;;;;4194393;28;20028;-74
2020/12/02 02:31:02;;;;;;;38.13;21.05;;;5.90;99.90;;;;;;4181464;28;20037;-74
2020/12/02 02:33:03;;;;;;;33.67;21.38;;;5.90;99.90;;;;;;4192343;28;20024;-75
2020/12/02 02:35:05;;;;;;;33.60;20.77;;;5.90;99.90;;;;;;4211455;28;20036;-74
2020/12/02 02:37:11;;;;;;;33.72;20.42;;;5.90;99.90;;;;;;4195926;28;20115;-74
2020/12/02 02:39:13;;;;;;;33.05;20.25;;;5.90;99.90;;;;;;4194568;28;20130;-75
2020/12/02 02:41:13;;;;;;;32.70;22.08;;;5.90;99.90;;;;;;4196074;28;20097;-74
2020/12/02 02:43:14;;;;;;;33.00;21.92;;;5.90;99.90;;;;;;4195139;28;20029;-75
2020/12/02 02:45:24;;;;;;;36.22;23.45;;;5.90;99.90;;;;;;4194975;28;20499;-74
2020/12/02 02:47:25;;;;;;;33.78;21.13;;;5.90;99.90;;;;;;4187972;28;20039;-74
2020/12/02 02:49:25;;;;;;;34.60;21.08;;;5.90;99.90;;;;;;4188209;28;20048;-74
2020/12/02 02:51:26;;;;;;;34.70;20.65;;;5.90;99.90;;;;;;4193660;28;20033;-74
2020/12/02 02:53:26;;;;;;;33.15;22.20;;;5.90;99.90;;;;;;4182673;28;20025;-75
2020/12/02 02:55:28;;;;;;;37.10;22.73;;;5.90;99.90;;;;;;4195990;28;20043;-74
2020/12/02 02:57:29;;;;;;;34.25;22.98;;;5.90;99.90;;;;;;4193532;28;20171;-75
2020/12/02 02:59:29;;;;;;;33.83;21.95;;;5.90;99.90;;;;;;4179505;28;20036;-75
2020/12/02 03:01:30;;;;;;;37.60;23.10;;;5.90;99.90;;;;;;4179542;28;20472;-75
2020/12/02 03:03:31;;;;;;;38.47;23.05;;;5.90;99.90;;;;;;4178260;28;20033;-74
2020/12/02 03:05:33;;;;;;;38.38;22.65;;;5.90;99.90;;;;;;4179849;28;20036;-74
2020/12/02 03:07:34;;;;;;;34.47;22.75;;;5.90;99.90;;;;;;4194387;28;20021;-75
2020/12/02 03:09:35;;;;;;;32.90;21.75;;;5.90;99.90;;;;;;4195928;28;20061;-74
2020/12/02 03:11:36;;;;;;;34.88;22.65;;;5.90;99.90;;;;;;4202709;28;20059;-74
2020/12/02 03:13:52;;;;;;;34.95;21.38;;;5.90;99.90;;;;;;4194349;28;20047;-74
2020/12/02 03:15:53;;;;;;;39.35;22.50;;;5.90;99.90;;;;;;4192879;28;20463;-75
2020/12/02 03:17:54;;;;;;;34.03;21.02;;;5.80;99.90;;;;;;4194170;28;20017;-74
2020/12/02 03:20:28;;;;;;;38.22;22.77;;;5.80;99.90;;;;;;4194673;28;20028;-75
2020/12/02 03:22:30;;;;;;;35.60;21.42;;;5.80;99.90;;;;;;4176687;28;20666;-74
2020/12/02 03:24:32;;;;;;;40.80;23.50;;;5.80;99.90;;;;;;4183045;28;20064;-74
2020/12/02 03:26:32;;;;;;;37.10;23.35;;;5.80;99.90;;;;;;4187114;28;20031;-75
2020/12/02 03:28:33;;;;;;;36.47;22.10;;;5.80;99.90;;;;;;4190564;28;20048;-75
2020/12/02 03:30:34;;;;;;;37.88;22.98;;;5.80;99.90;;;;;;4178904;28;20480;-74
2020/12/02 03:32:34;;;;;;;39.22;23.60;;;5.80;99.90;;;;;;4182514;28;20077;-74
2020/12/02 03:34:35;;;;;;;38.40;23.65;;;5.80;99.90;;;;;;4194266;28;20384;-75
2020/12/02 03:36:36;;;;;;;37.72;24.73;;;5.80;99.90;;;;;;4194692;28;20017;-74
2020/12/02 03:38:36;;;;;;;44.78;25.83;;;5.90;99.90;;;;;;4193190;28;20036;-74
2020/12/02 03:40:41;;;;;;;42.30;23.92;;;5.80;99.90;;;;;;4194380;28;20437;-75
2020/12/02 03:42:42;;;;;;;41.00;23.08;;;5.80;99.90;;;;;;4195860;28;20029;-74
2020/12/02 03:44:42;;;;;;;39.10;22.58;;;5.80;99.90;;;;;;4194155;28;20029;-75
2020/12/02 03:46:43;;;;;;;41.45;23.33;;;5.80;99.90;;;;;;4195812;28;20483;-74
2020/12/02 03:48:43;;;;;;;40.58;23.88;;;5.80;99.90;;;;;;4194441;28;20129;-75
2020/12/02 03:50:45;;;;;;;40.63;23.98;;;5.80;99.90;;;;;;4193528;28;20036;-75
2020/12/02 03:52:45;;;;;;;40.70;24.27;;;5.80;99.90;;;;;;4210853;28;20021;-75
2020/12/02 03:54:46;;;;;;;37.22;23.15;;;5.80;99.90;;;;;;4195797;28;20035;-75
2020/12/02 03:56:47;;;;;;;38.65;23.40;;;5.80;99.90;;;;;;4191314;28;20046;-74
2020/12/02 03:58:48;;;;;;;45.92;25.58;;;5.80;99.90;;;;;;4189873;28;20037;-75
2020/12/02 04:00:48;;;;;;;37.35;23.40;;;5.80;99.90;;;;;;4189086;28;20040;-74
2020/12/02 04:02:49;;;;;;;45.35;23.55;;;5.80;99.90;;;;;;4194076;28;20058;-74
2020/12/02 04:04:50;;;;;;;42.20;24.13;;;5.80;99.90;;;;;;4195517;28;20375;-75
2020/12/02 04:06:50;;;;;;;44.85;26.02;;;5.80;99.90;;;;;;4196732;28;20439;-74
2020/12/02 04:08:52;;;;;;;43.80;24.00;;;5.80;99.90;;;;;;4198479;28;20483;-74
2020/12/02 04:10:52;;;;;;;44.03;23.95;;;5.80;99.90;;;;;;4196989;28;20028;-75
2020/12/02 04:12:53;;;;;;;42.53;24.42;;;5.80;99.90;;;;;;4198340;28;20033;-74
2020/12/02 04:14:53;;;;;;;48.85;25.23;;;5.80;99.90;;;;;;4194808;28;20025;-75
2020/12/02 04:16:54;;;;;;;40.10;21.83;;;5.80;99.90;;;;;;4181721;28;20056;-74
2020/12/02 04:18:54;;;;;;;45.75;23.50;;;5.80;99.90;;;;;;4181566;28;20025;-75
2020/12/02 04:20:55;;;;;;;44.72;25.42;;;5.80;99.90;;;;;;4181696;28;20438;-74
2020/12/02 04:22:56;;;;;;;45.95;25.70;;;5.80;99.90;;;;;;4181654;28;20025;-74
2020/12/02 04:24:56;;;;;;;43.92;25.67;;;5.80;99.90;;;;;;4185617;28;20434;-74
2020/12/02 04:26:57;;;;;;;46.00;24.48;;;5.70;99.90;;;;;;4197144;28;20029;-74
2020/12/02 04:28:58;;;;;;;43.17;25.30;;;5.70;99.90;;;;;;4192549;28;20029;-74
2020/12/02 04:30:59;;;;;;;39.97;24.13;;;5.70;99.90;;;;;;4194488;28;20120;-74
2020/12/02 04:33:00;;;;;;;47.03;23.73;;;5.70;99.90;;;;;;4183889;28;20064;-75
2020/12/02 04:35:04;;;;;;;43.17;23.55;;;5.80;99.90;;;;;;4198074;28;20038;-75
2020/12/02 04:37:04;;;;;;;46.22;25.00;;;5.70;99.90;;;;;;4197796;28;20029;-75
2020/12/02 04:39:05;;;;;;;38.38;22.17;;;5.80;99.90;;;;;;4197983;28;20078;-74
2020/12/02 04:41:12;;;;;;;36.85;22.80;;;5.80;99.90;;;;;;4196839;28;20040;-75
2020/12/02 04:43:28;;;;;;;42.05;23.42;;;5.80;99.90;;;;;;4197416;28;20543;-75
2020/12/02 04:45:32;;;;;;;44.88;23.95;;;5.80;99.90;;;;;;4196642;28;20043;-74
2020/12/02 04:47:39;;;;;;;41.05;23.63;;;5.80;99.90;;;;;;4181382;28;20021;-74
2020/12/02 04:49:39;;;;;;;39.72;24.02;;;5.70;99.90;;;;;;4181365;28;20428;-74
2020/12/02 04:51:41;;;;;;;40.17;22.50;;;5.70;99.90;;;;;;4203532;28;20028;-74
2020/12/02 04:53:45;;;;;;;42.72;25.13;;;5.70;99.90;;;;;;4195959;28;20025;-74
2020/12/02 04:55:47;;;;;;;45.70;23.85;;;5.70;99.90;;;;;;4197663;28;20032;-74
2020/12/02 04:57:48;;;;;;;44.03;23.80;;;5.70;99.90;;;;;;4193520;28;20152;-74
2020/12/02 04:59:49;;;;;;;44.70;23.65;;;5.70;99.90;;;;;;4182955;28;20124;-74
2020/12/02 05:01:52;;;;;;;38.65;22.02;;;5.70;99.90;;;;;;4197563;28;20025;-75
2020/12/02 05:04:14;;;;;;;36.17;22.80;;;5.80;99.90;;;;;;4196503;28;20024;-75
2020/12/02 05:06:42;;;;;;;42.92;25.67;;;5.70;99.90;;;;;;4195182;28;20024;-75
2020/12/02 05:08:42;;;;;;;43.70;23.20;;;5.70;99.90;;;;;;4180912;28;20033;-74
2020/12/02 05:10:43;;;;;;;41.97;23.67;;;5.70;99.90;;;;;;4186898;28;20027;-75
2020/12/02 05:12:47;;;;;;;48.22;24.58;;;5.70;99.90;;;;;;4197414;28;20387;-75
2020/12/02 05:14:48;;;;;;;43.05;23.10;;;5.70;99.90;;;;;;4197268;28;20021;-75
2020/12/02 05:17:09;;;;;;;52.70;26.52;;;5.70;99.90;;;;;;4197248;28;20468;-75
2020/12/02 05:19:20;;;;;;;48.13;25.42;;;5.70;99.90;;;;;;4180428;28;20115;-75
2020/12/02 05:21:21;;;;;;;45.40;24.45;;;5.70;99.90;;;;;;4180620;28;20510;-75
2020/12/02 05:23:22;;;;;;;46.72;26.17;;;5.70;99.90;;;;;;4181221;28;20021;-74
2020/12/02 05:25:33;;;;;;;49.08;24.23;;;5.70;99.90;;;;;;4188489;28;20021;-74
2020/12/02 05:27:36;;;;;;;47.55;23.77;;;5.70;99.90;;;;;;4189831;28;20021;-75
2020/12/02 05:29:43;;;;;;;;;;;5.70;99.90;;;;;;4190743;28;20025;-74
2020/12/02 05:31:45;;;;;;;47.22;24.90;;;5.60;99.90;;;;;;4196318;28;19908;-74
2020/12/02 05:33:46;;;;;;;47.15;24.92;;;5.60;99.90;;;;;;4195889;28;20119;-74
2020/12/02 05:36:05;;;;;;;48.63;26.17;;;5.60;99.90;;;;;;4192949;28;20384;-75
2020/12/02 05:38:12;;;;;;;51.47;25.10;;;5.60;99.90;;;;;;4194331;28;20020;-75
2020/12/02 05:40:16;;;;;;;48.72;25.20;;;5.60;99.90;;;;;;4183151;28;20045;-75
2020/12/02 05:42:29;;;;;;;56.65;26.60;;;5.60;99.90;;;;;;4180232;28;20037;-75
2020/12/02 05:44:35;;;;;;;53.08;26.65;;;5.60;99.90;;;;;;4191431;28;20037;-75
2020/12/02 05:46:42;;;;;;;56.88;26.50;;;5.60;99.90;;;;;;4194220;28;20071;-75
2020/12/02 05:48:43;;;;;;;50.15;26.25;;;5.60;99.90;;;;;;4190427;28;20116;-75
2020/12/02 05:50:45;;;;;;;49.47;26.65;;;5.60;99.90;;;;;;4180488;28;20376;-75
2020/12/02 05:52:49;;;;;;;52.35;26.75;;;5.60;99.90;;;;;;4193444;28;20035;-75
2020/12/02 05:54:55;;;;;;;47.05;25.05;;;5.60;99.90;;;;;;4196882;28;20384;-75
2020/12/02 05:56:57;;;;;;;54.60;25.67;;;5.60;99.90;;;;;;4195689;28;20423;-75
2020/12/02 05:58:58;;;;;;;44.55;25.40;;;5.60;99.90;;;;;;4182700;28;20036;-75
2020/12/02 06:00:59;;;;;;;47.63;25.50;;;5.60;99.90;;;;;;4192144;28;20925;-74
2020/12/02 06:03:00;;;;;;;45.92;23.90;;;5.60;99.90;;;;;;4193938;28;20049;-75
2020/12/02 06:05:01;;;;;;;46.53;23.80;;;5.70;99.90;;;;;;4211051;28;20519;-76
2020/12/02 06:07:01;;;;;;;52.97;27.63;;;5.70;99.90;;;;;;4180691;28;20045;-75
2020/12/02 06:09:02;;;;;;;44.88;25.17;;;5.70;99.90;;;;;;4194732;28;20039;-74
2020/12/02 06:11:15;;;;;;;49.35;26.27;;;5.70;99.90;;;;;;4201937;28;20085;-75
2020/12/02 06:13:39;;;;;;;47.00;25.17;;;5.60;99.90;;;;;;4194819;28;20039;-75
2020/12/02 06:15:40;;;;;;;47.45;25.05;;;5.60;99.90;;;;;;4196778;28;20039;-75
2020/12/02 06:17:40;;;;;;;47.45;24.52;;;5.60;99.90;;;;;;4195775;28;20029;-74
2020/12/02 06:19:50;;;;;;;47.88;24.55;;;5.60;99.90;;;;;;4185059;28;20120;-75
2020/12/02 06:21:57;;;;;;;51.22;24.13;;;5.60;99.90;;;;;;4182873;28;20124;-75
2020/12/02 06:23:57;;;;;;;45.92;25.17;;;5.60;99.90;;;;;;4194423;28;20051;-75
2020/12/02 06:25:58;;;;;;;48.17;22.85;;;5.60;99.90;;;;;;4192028;28;20051;-75
2020/12/02 06:28:00;;;;;;;43.05;23.50;;;5.60;99.90;;;;;;4193866;28;20489;-74
2020/12/02 06:30:06;;;;;;;44.28;23.58;;;5.60;99.90;;;;;;4194850;28;20101;-74
2020/12/02 06:32:16;;;;;;;44.75;22.92;;;5.70;99.90;;;;;;4194687;28;20076;-75
2020/12/02 06:34:26;;;;;;;41.80;23.02;;;5.60;99.90;;;;;;4196247;28;20020;-75
2020/12/02 06:36:34;;;;;;;41.95;23.38;;;5.60;99.90;;;;;;4196222;28;20024;-75
2020/12/02 06:38:35;;;;;;;45.90;24.35;;;5.60;99.90;;;;;;4195261;28;20032;-75
2020/12/02 06:40:35;;;;;;;45.75;23.55;;;5.60;99.90;;;;;;4188404;28;20053;-75
2020/12/02 06:42:40;;;;;;;46.38;24.00;;;5.60;99.90;;;;;;4190883;28;20029;-74
2020/12/02 06:45:11;;;;;;;46.00;25.33;;;5.60;99.90;;;;;;4186903;28;20036;-75
2020/12/02 06:47:20;;;;;;;52.95;24.65;;;5.60;99.90;;;;;;4184118;28;20025;-74
2020/12/02 06:49:34;;;;;;;45.75;24.02;;;5.60;99.90;;;;;;4195906;28;20047;-75
2020/12/02 06:51:35;;;;;;;45.15;24.45;;;5.60;99.90;;;;;;4193933;28;20384;-75
2020/12/02 06:53:35;;;;;;;56.03;25.00;;;5.60;99.90;;;;;;4197284;28;20032;-75
2020/12/02 06:55:36;;;;;;;42.70;23.20;;;5.60;99.90;;;;;;4185742;28;20040;-74
2020/12/02 06:57:37;;;;;;;47.63;23.88;;;5.60;99.90;;;;;;4173671;28;20060;-75
2020/12/02 06:59:57;;;;;;;46.78;24.13;;;5.60;99.90;;;;;;4167844;28;20380;-75
2020/12/02 07:02:05;;;;;;;50.78;24.95;;;5.70;99.90;;;;;;4202840;28;20513;-75
2020/12/02 07:04:13;;;;;;;44.80;21.95;;;5.70;99.90;;;;;;4212669;28;20043;-75
2020/12/02 07:06:21;;;;;;;52.75;25.60;;;5.60;99.90;;;;;;4204421;28;20035;-75
2020/12/02 07:08:42;;;;;;;45.05;23.58;;;5.60;99.90;;;;;;4180450;28;20468;-75
2020/12/02 07:10:58;;;;;;;48.22;22.88;;;5.60;99.90;;;;;;4210552;28;20032;-75
2020/12/02 07:12:59;;;;;;;46.67;25.05;;;5.70;99.90;;;;;;4211699;28;20027;-75
2020/12/02 07:15:00;;;;;;;45.22;24.95;;;5.70;99.90;;;;;;4205552;28;20395;-75
2020/12/02 07:17:04;;;;;;;42.00;24.05;;;5.60;99.90;;;;;;4208431;28;20012;-76
2020/12/02 07:19:15;;;;;;;47.20;25.08;;;5.70;99.90;;;;;;4208911;28;20028;-75
2020/12/02 07:21:32;;;;;;;45.40;24.27;;;5.60;99.90;;;;;;4186111;28;20491;-74
2020/12/02 07:23:33;;;;;;;41.78;22.30;;;5.60;99.90;;;;;;4194322;28;20033;-75
2020/12/02 07:25:33;;;;;;;44.40;24.45;;;5.70;99.90;;;;;;4197395;28;20484;-74
2020/12/02 07:27:41;;;;;;;43.05;22.08;;;5.60;99.90;;;;;;4203042;28;20077;-74
2020/12/02 07:29:42;;;;;;;48.08;25.02;;;5.60;99.90;;;;;;4199798;28;20059;-74
2020/12/02 07:31:43;;;;;;;41.67;23.75;;;5.60;99.90;;;;;;4192012;28;20029;-74
2020/12/02 07:34:05;;;;;;;45.67;24.60;;;5.60;99.90;;;;;;4177473;28;20088;-74
2020/12/02 07:36:18;;;;;;;42.55;22.33;;;5.60;99.90;;;;;;4185936;28;20074;-75
2020/12/02 07:38:19;;;;;;;47.03;24.33;;;5.60;99.90;;;;;;4194035;28;20031;-74
2020/12/02 07:40:35;;;;;;;46.65;24.65;;;5.60;99.90;;;;;;4195542;28;20024;-75
2020/12/02 07:42:42;;;;;;;51.72;24.90;;;5.60;99.90;;;;;;4197068;28;20436;-74
2020/12/02 07:44:58;;;;;;;47.58;24.00;;;5.60;99.90;;;;;;4206821;28;20028;-75
2020/12/02 07:47:02;;;;;;;48.88;23.25;;;5.60;99.90;;;;;;4208972;28;20028;-75
2020/12/02 07:49:05;;;;;;;47.63;23.15;;;5.60;99.90;;;;;;4185997;28;20052;-75
2020/12/02 07:51:17;;;;;;;;;;;5.60;99.90;;;;;;4187787;28;20598;-75
2020/12/02 07:53:36;;;;;;;42.88;23.30;;;5.60;99.90;;;;;;4190671;28;19954;-75
2020/12/02 07:55:42;;;;;;;50.00;24.10;;;5.60;99.90;;;;;;4196269;28;20036;-75
2020/12/02 07:57:43;;;;;;;40.50;22.80;;;5.60;99.90;;;;;;4203139;28;20036;-74
2020/12/02 08:00:03;;;;;;;39.92;22.08;;;5.60;99.90;;;;;;4208728;28;20054;-74
2020/12/02 08:02:09;;;;;;;50.70;25.30;;;5.60;99.90;;;;;;4214407;28;20024;-75
2020/12/02 08:04:22;;;;;;;42.35;23.30;;;5.60;99.90;;;;;;4191762;28;20024;-74
2020/12/02 08:06:33;;;;;;;45.17;22.70;;;5.60;99.90;;;;;;4196301;28;20039;-74
2020/12/02 08:08:33;;;;;;;48.17;22.67;;;5.60;99.90;;;;;;4181667;28;20017;-74
2020/12/02 08:10:36;;;;;;;53.47;25.05;;;5.70;99.90;;;;;;4194018;28;20578;-75
2020/12/02 08:12:37;;;;;;;49.87;22.13;;;5.60;99.90;;;;;;4196510;28;20072;-75
2020/12/02 08:14:41;;;;;;;47.65;24.83;;;5.60;99.90;;;;;;4193480;28;20259;-75
2020/12/02 08:16:43;;;;;;;45.10;24.45;;;5.60;99.90;;;;;;4193593;28;20487;-75
2020/12/02 08:18:50;;;;;;;49.63;23.77;;;5.60;99.90;;;;;;4196432;28;20025;-75
2020/12/02 08:20:51;;;;;;;39.38;21.92;;;5.70;99.90;;;;;;4191597;28;20030;-74
2020/12/02 08:22:55;;;;;;;42.42;22.73;;;5.70;99.90;;;;;;4190532;28;20499;-74
2020/12/02 08:25:17;;;;;;;45.95;23.17;;;5.70;99.90;;;;;;4188086;28;20031;-75
2020/12/02 08:27:18;;;;;;;44.10;23.63;;;5.70;99.90;;;;;;4181035;28;20519;-75
2020/12/02 08:29:23;;;;;;;45.60;24.02;;;5.70;99.90;;;;;;4184714;28;20104;-75
2020/12/02 08:31:28;;;;;;;50.30;24.60;;;5.70;99.90;;;;;;4190639;28;20036;-75
2020/12/02 08:33:28;;;;;;;46.20;24.35;;;5.70;99.90;;;;;;4195981;28;20383;-75
2020/12/02 08:35:36;;;;;;;45.72;25.95;;;5.70;99.90;;;;;;4179371;28;20171;-75
2020/12/02 08:37:41;;;;;;;48.42;24.85;;;5.60;99.90;;;;;;4191627;28;20542;-75
2020/12/02 08:39:44;;;;;;;54.35;24.58;;;5.70;99.90;;;;;;4195175;28;20111;-75
2020/12/02 08:41:48;;;;;;;51.40;24.17;;;5.70;99.90;;;;;;4191642;28;20563;-74
2020/12/02 08:43:50;;;;;;;53.28;25.75;;;5.60;99.90;;;;;;4191308;28;20024;-75
2020/12/02 08:45:54;;;;;;;60.95;28.88;;;5.60;99.90;;;;;;4182806;28;20032;-74
2020/12/02 08:47:56;;;;;;;56.65;27.40;;;5.60;99.90;;;;;;4185019;28;20025;-75
2020/12/02 08:49:57;;;;;;;64.90;30.00;;;5.60;99.90;;;;;;4186480;28;20080;-75
2020/12/02 08:51:57;;;;;;;64.60;28.92;;;5.60;99.90;;;;;;4205934;28;20120;-75
2020/12/02 08:54:10;;;;;;;57.42;27.13;;;5.60;99.90;;;;;;4190463;28;20069;-75
2020/12/02 08:56:30;;;;;;;60.38;26.80;;;5.60;99.90;;;;;;4212423;28;20033;-75
2020/12/02 08:58:31;;;;;;;54.85;24.58;;;5.60;99.90;;;;;;4208424;28;20125;-75
2020/12/02 09:00:31;;;;;;;50.45;23.42;;;5.60;99.90;;;;;;4198595;28;20029;-74
2020/12/02 09:02:32;;;;;;;52.78;24.40;;;5.50;99.90;;;;;;4204408;28;20111;-74
2020/12/02 09:04:32;;;;;;;56.33;24.33;;;5.60;99.90;;;;;;4208782;28;20048;-75
2020/12/02 09:06:33;;;;;;;49.10;25.75;;;5.60;99.90;;;;;;4211625;28;20032;-74
2020/12/02 09:08:34;;;;;;;50.08;24.92;;;5.60;99.90;;;;;;4198386;28;20119;-75
2020/12/02 09:10:35;;;;;;;56.08;24.75;;;5.60;99.90;;;;;;4185470;28;20043;-75
2020/12/02 09:12:35;;;;;;;54.92;25.42;;;5.60;99.90;;;;;;4195637;28;20036;-75
2020/12/02 09:14:36;;;;;;;51.63;22.13;;;5.60;99.90;;;;;;4187671;28;20097;-75
2020/12/02 09:16:39;;;;;;;56.75;24.38;;;5.60;99.90;;;;;;4182188;28;20576;-75
2020/12/02 09:18:39;;;;;;;53.90;23.17;;;5.60;99.90;;;;;;4195257;28;20032;-75
2020/12/02 09:20:40;;;;;;;48.92;22.98;;;5.60;99.90;;;;;;4172248;28;20416;-74
2020/12/02 09:22:41;;;;;;;51.90;23.38;;;5.60;99.90;;;;;;4198451;28;20127;-74
2020/12/02 09:24:42;;;;;;;46.97;22.65;;;5.60;99.90;;;;;;4185861;28;20447;-75
2020/12/02 09:26:42;;;;;;;50.20;23.27;;;5.60;99.90;;;;;;4188547;28;20068;-74
2020/12/02 09:28:43;;;;;;;52.08;21.88;;;5.60;99.90;;;;;;4192879;28;20119;-75
2020/12/02 09:30:44;;;;;;;46.67;22.33;;;5.50;99.90;;;;;;4195374;28;20035;-76
2020/12/02 09:32:45;;;;;;;50.83;25.02;;;5.60;99.90;;;;;;4192859;28;20032;-76
2020/12/02 09:34:46;;;;;;;46.10;21.02;;;5.60;99.90;;;;;;4194920;28;20412;-75
2020/12/02 09:36:47;;;;;;;44.70;21.60;;;5.60;99.90;;;;;;4185078;28;20036;-74
2020/12/02 09:38:50;;;;;;;50.13;23.08;;;5.60;99.90;;;;;;4184429;28;20025;-75
2020/12/02 09:40:50;;;;;;;46.47;23.33;;;5.60;99.90;;;;;;4194790;28;20122;-75
2020/12/02 09:42:57;;;;;;;49.63;22.73;;;5.70;99.90;;;;;;4192872;28;20025;-75
2020/12/02 09:45:11;;;;;;;44.83;23.05;;;5.60;99.90;;;;;;4200362;28;20500;-75
2020/12/02 09:47:15;;;;;;;48.50;22.38;;;5.70;99.90;;;;;;4195077;28;20029;-75
2020/12/02 09:49:16;;;;;;;49.17;22.25;;;5.60;99.90;;;;;;4181049;28;20526;-75
2020/12/02 09:51:28;;;;;;;48.10;22.48;;;5.70;99.90;;;;;;4193088;28;20037;-75
2020/12/02 09:53:31;;;;;;;41.00;20.73;;;5.70;99.90;;;;;;4194393;28;20083;-75
2020/12/02 09:55:32;;;;;;;42.83;21.17;;;5.70;99.90;;;;;;4195855;28;20028;-75
2020/12/02 09:57:34;;;;;;;44.00;20.90;;;5.70;99.90;;;;;;4192338;28;20484;-75
2020/12/02 09:59:37;;;;;;;39.90;20.92;;;5.70;99.90;;;;;;4187047;28;20053;-75
2020/12/02 10:01:45;;;;;;;;;;;5.70;99.90;;;;;;4190940;28;20408;-75
2020/12/02 10:04:16;;;;;;;38.67;20.92;;;5.80;99.90;;;;;;4181679;28;19909;-75
2020/12/02 10:06:42;;;;;;;48.63;21.77;;;5.70;99.90;;;;;;4187299;28;20037;-75
2020/12/02 10:08:43;;;;;;;50.25;21.63;;;5.70;99.90;;;;;;4194045;28;20052;-75
2020/12/02 10:11:06;;;;;;;44.13;22.17;;;5.70;99.90;;;;;;4194850;28;20034;-75
2020/12/02 10:13:28;;;;;;;44.80;20.52;;;5.70;99.90;;;;;;4188527;28;20025;-75
2020/12/02 10:15:55;;;;;;;42.35;21.52;;;5.70;99.90;;;;;;4193947;28;20032;-75
2020/12/02 10:18:37;;;;;;;47.25;21.00;;;5.80;99.90;;;;;;4193043;28;20166;-74
2020/12/02 10:20:43;;;;;;;48.58;22.23;;;5.80;99.90;;;;;;4168603;28;20119;-75
2020/12/02 10:23:16;;;;;;;41.33;20.55;;;5.90;99.90;;;;;;4195526;28;20032;-75
2020/12/02 10:25:36;;;;;;;42.28;20.70;;;5.90;99.90;;;;;;4148422;28;20120;-75
2020/12/02 10:27:43;;;;;;;40.20;21.75;;;5.90;99.90;;;;;;4189690;28;20062;-75
2020/12/02 10:30:08;;;;;;;43.33;19.73;;;5.90;99.90;;;;;;4196178;28;20036;-75
2020/12/02 10:32:15;;;;;;;43.22;21.10;;;5.90;99.90;;;;;;4184383;28;20024;-75
2020/12/02 10:34:19;;;;;;;41.53;21.60;;;6.00;99.90;;;;;;4190294;28;20094;-75
2020/12/02 10:36:33;;;;;;;38.60;19.23;;;5.90;99.90;;;;;;4182865;28;20480;-75
2020/12/02 10:38:44;;;;;;;38.75;19.65;;;5.90;99.90;;;;;;4194909;28;20075;-75
2020/12/02 10:40:53;;;;;;;36.55;19.13;;;6.00;99.90;;;;;;4191377;28;20044;-74
2020/12/02 10:43:22;;;;;;;39.60;20.33;;;6.00;99.90;;;;;;4210040;28;20441;-75
2020/12/02 10:45:23;;;;;;;37.25;20.35;;;5.90;99.90;;;;;;4203686;28;20037;-75
2020/12/02 10:47:38;;;;;;;38.83;20.83;;;6.00;99.90;;;;;;4180233;28;20032;-75
2020/12/02 10:49:39;;;;;;;39.67;21.17;;;6.00;99.90;;;;;;4187740;28;20475;-75